createdAt,value
2018-01-23T00:00:12.356Z,7.43
2018-01-23T00:01:12.379Z,7.48
2018-01-23T00:02:12.392Z,7.47
2018-01-23T00:03:12.403Z,7.47
2018-01-23T00:04:12.417Z,7.51
2018-01-23T00:05:12.435Z,7.61
2018-01-23T00:06:12.451Z,7.66
2018-01-23T00:07:12.458Z,7.43
2018-01-23T00:08:12.478Z,7.57
2018-01-23T00:09:12.489Z,7.48
2018-01-23T00:10:12.501Z,7.51
2018-01-23T00:11:12.517Z,7.73
2018-01-23T00:12:12.536Z,7.80
2018-01-23T00:13:12.546Z,7.76
2018-01-23T00:14:12.560Z,7.60
2018-01-23T00:15:12.575Z,7.66
2018-01-23T00:16:12.589Z,7.75
2018-01-23T00:17:12.603Z,7.70
2018-01-23T00:18:12.616Z,7.76
2018-01-23T00:19:12.636Z,7.67
2018-01-23T00:20:12.650Z,7.50
2018-01-23T00:21:12.661Z,7.67
2018-01-23T00:22:12.677Z,7.70
2018-01-23T00:23:12.703Z,7.69
2018-01-23T00:24:12.703Z,7.72
2018-01-23T00:25:12.717Z,7.48
2018-01-23T00:26:12.733Z,7.38
2018-01-23T00:27:12.748Z,7.42
2018-01-23T00:28:12.761Z,7.58
2018-01-23T00:29:12.778Z,7.48
2018-01-23T00:30:12.793Z,7.45
2018-01-23T00:31:12.804Z,7.33
2018-01-23T00:32:12.817Z,7.48
2018-01-23T00:33:12.834Z,7.53
2018-01-23T00:34:12.848Z,7.57
2018-01-23T00:35:12.863Z,7.67
2018-01-23T00:36:12.877Z,7.80
2018-01-23T00:37:12.890Z,7.72
2018-01-23T00:38:12.906Z,7.57
2018-01-23T00:39:12.921Z,7.67
2018-01-23T00:40:13.026Z,7.63
2018-01-23T00:41:12.951Z,7.72
2018-01-23T00:42:12.963Z,7.57
2018-01-23T00:43:12.978Z,7.48
2018-01-23T00:44:12.992Z,7.43
2018-01-23T00:45:13.009Z,7.38
2018-01-23T00:46:13.024Z,7.42
2018-01-23T00:47:13.037Z,7.50
2018-01-23T00:48:13.050Z,7.69
2018-01-23T00:49:13.068Z,7.66
2018-01-23T00:50:13.080Z,7.77
2018-01-23T00:51:13.097Z,7.77
2018-01-23T00:52:13.112Z,7.69
2018-01-23T00:53:13.125Z,7.76
2018-01-23T00:54:13.138Z,7.63
2018-01-23T00:55:13.155Z,7.79
2018-01-23T00:56:13.169Z,7.61
2018-01-23T00:57:13.181Z,7.45
2018-01-23T00:58:13.197Z,7.45
2018-01-23T00:59:13.214Z,7.48
2018-01-23T01:00:13.226Z,7.47
2018-01-23T01:01:13.244Z,7.66
2018-01-23T01:02:13.253Z,7.77
2018-01-23T01:03:13.336Z,7.83
2018-01-23T01:04:13.282Z,7.88
2018-01-23T01:05:13.297Z,7.66
2018-01-23T01:06:13.313Z,7.39
2018-01-23T01:07:13.327Z,7.35
2018-01-23T01:08:13.339Z,7.32
2018-01-23T01:09:13.358Z,7.45
2018-01-23T01:10:13.372Z,7.47
2018-01-23T01:11:13.385Z,7.43
2018-01-23T01:12:13.399Z,7.54
2018-01-23T01:13:13.413Z,7.47
2018-01-23T01:14:13.428Z,7.58
2018-01-23T01:15:13.443Z,7.66
2018-01-23T01:16:13.455Z,7.77
2018-01-23T01:17:13.483Z,7.63
2018-01-23T01:18:13.491Z,7.40
2018-01-23T01:19:13.501Z,7.53
2018-01-23T01:20:13.519Z,7.61
2018-01-23T01:21:13.529Z,7.53
2018-01-23T01:22:13.546Z,7.60
2018-01-23T01:23:13.559Z,7.63
2018-01-23T01:24:13.572Z,7.51
2018-01-23T01:25:13.587Z,7.61
2018-01-23T01:26:13.606Z,7.76
2018-01-23T01:27:13.616Z,7.76
2018-01-23T01:28:13.629Z,7.87
2018-01-23T01:29:13.646Z,7.83
2018-01-23T01:30:13.660Z,7.94
2018-01-23T01:31:13.674Z,7.91
2018-01-23T01:32:13.687Z,7.95
2018-01-23T01:33:13.704Z,7.91
2018-01-23T01:34:13.719Z,7.91
2018-01-23T01:35:13.733Z,7.93
2018-01-23T01:36:13.750Z,7.85
2018-01-23T01:37:13.762Z,7.90
2018-01-23T01:38:13.775Z,7.93
2018-01-23T01:39:13.789Z,7.90
2018-01-23T01:40:13.810Z,7.93
2018-01-23T01:41:13.823Z,7.93
2018-01-23T01:42:13.838Z,7.97
2018-01-23T01:43:13.851Z,7.95
2018-01-23T01:44:13.866Z,7.93
2018-01-23T01:45:13.879Z,7.85
2018-01-23T01:46:13.894Z,7.95
2018-01-23T01:47:13.914Z,8.00
2018-01-23T01:48:13.926Z,8.03
2018-01-23T01:49:13.940Z,7.95
2018-01-23T01:50:13.958Z,7.98
2018-01-23T01:51:14.004Z,8.09
2018-01-23T01:52:13.990Z,8.13
2018-01-23T01:53:14.002Z,8.12
2018-01-23T01:54:14.009Z,8.15
2018-01-23T01:55:14.025Z,8.19
2018-01-23T01:56:14.039Z,8.16
2018-01-23T01:57:14.054Z,8.15
2018-01-23T01:58:14.066Z,8.06
2018-01-23T01:59:14.084Z,8.19
2018-01-23T02:00:14.105Z,8.18
2018-01-23T02:01:14.110Z,8.15
2018-01-23T02:02:14.130Z,8.18
2018-01-23T02:03:14.141Z,8.19
2018-01-23T02:04:14.154Z,8.16
2018-01-23T02:05:14.170Z,8.20
2018-01-23T02:06:14.187Z,8.13
2018-01-23T02:07:14.201Z,8.23
2018-01-23T02:08:14.214Z,8.24
2018-01-23T02:09:14.230Z,8.00
2018-01-23T02:10:14.244Z,8.08
2018-01-23T02:11:14.265Z,8.05
2018-01-23T02:12:14.276Z,8.18
2018-01-23T02:13:14.288Z,8.10
2018-01-23T02:14:14.303Z,7.98
2018-01-23T02:15:14.317Z,8.12
2018-01-23T02:16:14.336Z,8.12
2018-01-23T02:17:14.348Z,8.03
2018-01-23T02:18:14.434Z,8.18
2018-01-23T02:19:14.380Z,8.13
2018-01-23T02:20:14.394Z,8.09
2018-01-23T02:21:14.406Z,8.01
2018-01-23T02:22:14.424Z,7.79
2018-01-23T02:23:14.494Z,7.75
2018-01-23T02:24:14.447Z,7.69
2018-01-23T02:25:14.464Z,7.69
2018-01-23T02:26:14.481Z,7.85
2018-01-23T02:27:14.498Z,7.95
2018-01-23T02:28:14.531Z,7.80
2018-01-23T02:29:14.520Z,7.87
2018-01-23T02:30:14.542Z,7.93
2018-01-23T02:31:14.555Z,7.91
2018-01-23T02:32:14.570Z,7.94
2018-01-23T02:33:14.579Z,7.98
2018-01-23T02:34:14.596Z,8.05
2018-01-23T02:35:14.614Z,8.01
2018-01-23T02:36:14.628Z,8.10
2018-01-23T02:37:14.640Z,8.13
2018-01-23T02:38:14.657Z,7.95
2018-01-23T02:39:14.669Z,7.80
2018-01-23T02:40:14.688Z,7.73
2018-01-23T02:41:14.703Z,7.87
2018-01-23T02:42:14.712Z,7.66
2018-01-23T02:43:14.729Z,7.63
2018-01-23T02:44:14.745Z,7.32
2018-01-23T02:45:14.758Z,7.51
2018-01-23T02:46:14.772Z,7.56
2018-01-23T02:47:14.789Z,7.63
2018-01-23T02:48:14.799Z,7.58
2018-01-23T02:49:14.821Z,7.80
2018-01-23T02:50:14.834Z,7.90
2018-01-23T02:51:14.847Z,7.56
2018-01-23T02:52:14.860Z,7.63
2018-01-23T02:53:14.874Z,7.67
2018-01-23T02:54:14.888Z,7.77
2018-01-23T02:55:14.905Z,7.79
2018-01-23T02:56:14.917Z,7.91
2018-01-23T02:57:14.931Z,7.85
2018-01-23T02:58:14.947Z,7.69
2018-01-23T02:59:14.960Z,7.69
2018-01-23T03:00:14.976Z,7.53
2018-01-23T03:01:15.000Z,7.76
2018-01-23T03:02:15.006Z,7.66
2018-01-23T03:03:15.023Z,7.63
2018-01-23T03:04:15.036Z,7.57
2018-01-23T03:05:15.049Z,7.40
2018-01-23T03:06:15.066Z,7.35
2018-01-23T03:07:15.079Z,7.47
2018-01-23T03:08:15.095Z,7.51
2018-01-23T03:09:15.109Z,7.29
2018-01-23T03:10:15.121Z,7.39
2018-01-23T03:11:15.135Z,7.50
2018-01-23T03:12:15.152Z,7.56
2018-01-23T03:13:15.166Z,7.57
2018-01-23T03:14:15.180Z,7.40
2018-01-23T03:15:15.201Z,7.43
2018-01-23T03:16:15.214Z,7.32
2018-01-23T03:17:15.225Z,7.36
2018-01-23T03:18:15.244Z,7.36
2018-01-23T03:19:15.255Z,7.54
2018-01-23T03:20:15.267Z,7.60
2018-01-23T03:21:15.280Z,7.77
2018-01-23T03:22:15.296Z,7.72
2018-01-23T03:23:15.314Z,7.87
2018-01-23T03:24:15.326Z,7.77
2018-01-23T03:25:15.339Z,7.69
2018-01-23T03:26:15.353Z,7.79
2018-01-23T03:27:15.368Z,7.67
2018-01-23T03:28:15.382Z,7.80
2018-01-23T03:29:15.396Z,7.79
2018-01-23T03:30:15.415Z,7.87
2018-01-23T03:31:15.426Z,7.82
2018-01-23T03:32:15.439Z,7.87
2018-01-23T03:33:15.569Z,7.91
2018-01-23T03:34:15.468Z,7.80
2018-01-23T03:35:15.483Z,7.77
2018-01-23T03:36:15.505Z,7.63
2018-01-23T03:37:15.512Z,7.45
2018-01-23T03:38:15.526Z,7.54
2018-01-23T03:39:15.541Z,7.58
2018-01-23T03:40:15.556Z,7.56
2018-01-23T03:41:15.570Z,7.58
2018-01-23T03:42:15.591Z,7.53
2018-01-23T03:43:15.599Z,7.39
2018-01-23T03:44:15.613Z,7.51
2018-01-23T03:45:15.626Z,7.48
2018-01-23T03:46:15.654Z,7.60
2018-01-23T03:47:15.656Z,7.63
2018-01-23T03:48:15.671Z,7.66
2018-01-23T03:49:15.685Z,7.54
2018-01-23T03:50:15.701Z,7.45
2018-01-23T03:51:15.715Z,7.51
2018-01-23T03:52:15.727Z,7.66
2018-01-23T03:53:15.741Z,7.36
2018-01-23T03:54:15.758Z,7.18
2018-01-23T03:55:15.773Z,7.36
2018-01-23T03:56:15.786Z,7.42
2018-01-23T03:57:15.799Z,7.50
2018-01-23T03:58:15.815Z,7.56
2018-01-23T03:59:15.832Z,7.50
2018-01-23T04:00:15.846Z,7.33
2018-01-23T04:01:15.862Z,7.36
2018-01-23T04:02:15.872Z,7.33
2018-01-23T04:03:15.889Z,7.31
2018-01-23T04:04:15.899Z,7.18
2018-01-23T04:05:15.912Z,7.18
2018-01-23T04:06:15.930Z,7.17
2018-01-23T04:07:15.946Z,7.35
2018-01-23T04:08:15.957Z,7.40
2018-01-23T04:09:15.974Z,7.25
2018-01-23T04:10:15.984Z,7.02
2018-01-23T04:11:16.000Z,7.21
2018-01-23T04:12:16.014Z,7.36
2018-01-23T04:13:16.029Z,7.31
2018-01-23T04:14:16.044Z,7.33
2018-01-23T04:15:16.060Z,7.35
2018-01-23T04:16:16.071Z,7.36
2018-01-23T04:17:16.088Z,7.33
2018-01-23T04:18:16.100Z,7.39
2018-01-23T04:19:16.160Z,7.35
2018-01-23T04:20:16.127Z,7.28
2018-01-23T04:21:16.144Z,7.43
2018-01-23T04:22:16.156Z,7.45
2018-01-23T04:23:16.172Z,7.45
2018-01-23T04:24:16.195Z,7.42
2018-01-23T04:25:16.197Z,7.40
2018-01-23T04:26:16.213Z,7.36
2018-01-23T04:27:16.230Z,7.36
2018-01-23T04:28:16.239Z,7.45
2018-01-23T04:29:16.254Z,7.47
2018-01-23T04:30:16.270Z,7.35
2018-01-23T04:31:16.285Z,7.36
2018-01-23T04:32:16.298Z,7.42
2018-01-23T04:33:16.314Z,7.35
2018-01-23T04:34:16.328Z,7.33
2018-01-23T04:35:16.342Z,7.28
2018-01-23T04:36:16.356Z,7.25
2018-01-23T04:37:16.371Z,7.18
2018-01-23T04:38:16.391Z,7.32
2018-01-23T04:39:16.397Z,7.32
2018-01-23T04:40:16.411Z,7.29
2018-01-23T04:41:16.425Z,7.28
2018-01-23T04:42:16.442Z,7.20
2018-01-23T04:43:16.454Z,7.24
2018-01-23T04:44:16.471Z,7.25
2018-01-23T04:45:16.485Z,7.38
2018-01-23T04:46:16.501Z,7.33
2018-01-23T04:47:16.512Z,7.35
2018-01-23T04:48:16.523Z,7.13
2018-01-23T04:49:16.540Z,7.20
2018-01-23T04:50:16.560Z,7.28
2018-01-23T04:51:16.568Z,7.25
2018-01-23T04:52:16.582Z,7.18
2018-01-23T04:53:16.596Z,7.14
2018-01-23T04:54:16.614Z,6.93
2018-01-23T04:55:16.626Z,6.97
2018-01-23T04:56:16.639Z,6.72
2018-01-23T04:57:16.660Z,6.74
2018-01-23T04:58:16.666Z,6.72
2018-01-23T04:59:16.682Z,6.72
2018-01-23T05:00:16.698Z,6.84
2018-01-23T05:01:16.712Z,7.00
2018-01-23T05:02:16.730Z,6.95
2018-01-23T05:03:16.743Z,6.85
2018-01-23T05:04:16.752Z,6.74
2018-01-23T05:05:16.770Z,6.85
2018-01-23T05:06:16.806Z,6.93
2018-01-23T05:07:16.797Z,6.93
2018-01-23T05:08:16.810Z,7.07
2018-01-23T05:09:16.822Z,7.20
2018-01-23T05:10:16.839Z,7.23
2018-01-23T05:11:16.850Z,7.21
2018-01-23T05:12:16.869Z,7.39
2018-01-23T05:13:16.880Z,7.36
2018-01-23T05:14:16.895Z,7.32
2018-01-23T05:15:16.911Z,7.38
2018-01-23T05:16:16.924Z,7.39
2018-01-23T05:17:16.935Z,7.33
2018-01-23T05:18:16.952Z,7.28
2018-01-23T05:19:16.965Z,7.25
2018-01-23T05:20:16.979Z,7.36
2018-01-23T05:21:17.001Z,7.45
2018-01-23T05:22:17.008Z,7.47
2018-01-23T05:23:17.021Z,7.66
2018-01-23T05:24:17.035Z,7.67
2018-01-23T05:25:17.050Z,7.61
2018-01-23T05:26:17.065Z,7.77
2018-01-23T05:27:17.081Z,7.82
2018-01-23T05:28:17.095Z,7.82
2018-01-23T05:29:17.109Z,7.85
2018-01-23T05:30:17.121Z,7.88
2018-01-23T05:31:17.137Z,7.83
2018-01-23T05:32:17.153Z,7.88
2018-01-23T05:33:17.167Z,7.83
2018-01-23T05:34:17.185Z,7.85
2018-01-23T05:35:17.196Z,7.82
2018-01-23T05:36:17.210Z,7.91
2018-01-23T05:37:17.237Z,7.79
2018-01-23T05:38:17.242Z,7.85
2018-01-23T05:39:17.255Z,7.61
2018-01-23T05:40:17.269Z,7.72
2018-01-23T05:41:17.284Z,7.83
2018-01-23T05:42:17.296Z,7.88
2018-01-23T05:43:17.312Z,7.82
2018-01-23T05:44:17.327Z,7.77
2018-01-23T05:45:17.342Z,7.93
2018-01-23T05:46:17.355Z,7.97
2018-01-23T05:47:17.374Z,7.85
2018-01-23T05:48:17.386Z,8.01
2018-01-23T05:49:17.400Z,7.79
2018-01-23T05:50:17.414Z,7.91
2018-01-23T05:51:17.427Z,7.85
2018-01-23T05:52:17.442Z,7.94
2018-01-23T05:53:17.456Z,8.12
2018-01-23T05:54:17.474Z,8.10
2018-01-23T05:55:17.486Z,8.05
2018-01-23T05:56:17.502Z,7.98
2018-01-23T05:57:17.513Z,8.01
2018-01-23T05:58:17.531Z,7.95
2018-01-23T05:59:17.545Z,8.13
2018-01-23T06:00:17.557Z,7.98
2018-01-23T06:01:17.574Z,7.98
2018-01-23T06:02:17.590Z,8.01
2018-01-23T06:03:17.607Z,7.80
2018-01-23T06:04:17.618Z,7.82
2018-01-23T06:05:17.631Z,7.73
2018-01-23T06:06:17.649Z,7.85
2018-01-23T06:07:17.664Z,7.79
2018-01-23T06:08:17.681Z,7.80
2018-01-23T06:09:17.694Z,7.79
2018-01-23T06:10:17.707Z,7.87
2018-01-23T06:11:17.724Z,7.90
2018-01-23T06:12:17.735Z,7.77
2018-01-23T06:13:17.752Z,7.90
2018-01-23T06:14:17.767Z,7.90
2018-01-23T06:15:17.779Z,7.88
2018-01-23T06:16:17.793Z,7.91
2018-01-23T06:17:17.810Z,7.90
2018-01-23T06:18:17.825Z,7.83
2018-01-23T06:19:17.837Z,7.90
2018-01-23T06:20:17.850Z,7.94
2018-01-23T06:21:17.866Z,7.91
2018-01-23T06:22:17.883Z,7.93
2018-01-23T06:23:17.898Z,7.90
2018-01-23T06:24:17.914Z,7.87
2018-01-23T06:25:17.928Z,7.88
2018-01-23T06:26:17.945Z,7.97
2018-01-23T06:27:17.954Z,7.95
2018-01-23T06:28:17.967Z,8.01
2018-01-23T06:29:17.988Z,7.77
2018-01-23T06:30:17.998Z,7.67
2018-01-23T06:31:18.013Z,7.85
2018-01-23T06:32:18.028Z,7.76
2018-01-23T06:33:18.044Z,7.91
2018-01-23T06:34:18.060Z,8.01
2018-01-23T06:35:18.074Z,8.03
2018-01-23T06:36:18.089Z,7.98
2018-01-23T06:37:18.109Z,7.97
2018-01-23T06:38:18.117Z,7.87
2018-01-23T06:39:18.137Z,7.80
2018-01-23T06:40:18.147Z,7.91
2018-01-23T06:41:18.162Z,7.90
2018-01-23T06:42:18.175Z,7.80
2018-01-23T06:43:18.198Z,7.88
2018-01-23T06:44:18.206Z,7.93
2018-01-23T06:45:18.221Z,7.97
2018-01-23T06:46:18.235Z,7.93
2018-01-23T06:47:18.251Z,7.82
2018-01-23T06:48:18.263Z,7.69
2018-01-23T06:49:18.281Z,7.88
2018-01-23T06:50:18.294Z,7.97
2018-01-23T06:51:18.310Z,8.00
2018-01-23T06:52:18.321Z,8.16
2018-01-23T06:53:18.341Z,7.98
2018-01-23T06:54:18.350Z,7.82
2018-01-23T06:55:18.367Z,7.90
2018-01-23T06:56:18.380Z,7.90
2018-01-23T06:57:18.396Z,7.95
2018-01-23T06:58:18.413Z,8.06
2018-01-23T06:59:18.424Z,7.98
2018-01-23T07:00:18.440Z,8.05
2018-01-23T07:01:18.456Z,8.00
2018-01-23T07:02:18.471Z,8.06
2018-01-23T07:03:18.485Z,8.09
2018-01-23T07:04:18.499Z,7.91
2018-01-23T07:05:18.516Z,7.93
2018-01-23T07:06:18.529Z,7.82
2018-01-23T07:07:18.542Z,7.87
2018-01-23T07:08:18.592Z,7.98
2018-01-23T07:09:18.572Z,7.98
2018-01-23T07:10:18.588Z,8.13
2018-01-23T07:11:18.603Z,8.16
2018-01-23T07:12:18.616Z,8.20
2018-01-23T07:13:18.630Z,8.13
2018-01-23T07:14:18.649Z,8.19
2018-01-23T07:15:18.663Z,8.24
2018-01-23T07:16:18.676Z,8.30
2018-01-23T07:17:18.694Z,8.24
2018-01-23T07:18:18.705Z,8.30
2018-01-23T07:19:18.721Z,8.24
2018-01-23T07:20:18.734Z,8.15
2018-01-23T07:21:18.750Z,7.98
2018-01-23T07:22:18.765Z,8.12
2018-01-23T07:23:18.780Z,7.98
2018-01-23T07:24:18.794Z,8.05
2018-01-23T07:25:18.808Z,8.20
2018-01-23T07:26:18.826Z,8.15
2018-01-23T07:27:18.838Z,8.19
2018-01-23T07:28:18.851Z,8.19
2018-01-23T07:29:18.865Z,8.16
2018-01-23T07:30:18.898Z,8.01
2018-01-23T07:31:18.896Z,7.94
2018-01-23T07:32:18.914Z,8.09
2018-01-23T07:33:18.925Z,8.10
2018-01-23T07:34:18.944Z,8.19
2018-01-23T07:35:18.956Z,8.20
2018-01-23T07:36:18.973Z,8.20
2018-01-23T07:37:18.986Z,8.03
2018-01-23T07:38:19.004Z,8.24
2018-01-23T07:39:19.017Z,7.93
2018-01-23T07:40:19.030Z,7.82
2018-01-23T07:41:19.045Z,7.95
2018-01-23T07:42:19.057Z,8.09
2018-01-23T07:43:19.075Z,8.18
2018-01-23T07:44:19.088Z,8.18
2018-01-23T07:45:19.105Z,8.00
2018-01-23T07:46:19.117Z,8.12
2018-01-23T07:47:19.133Z,8.19
2018-01-23T07:48:19.148Z,8.27
2018-01-23T07:49:19.163Z,8.34
2018-01-23T07:50:19.185Z,8.34
2018-01-23T07:51:19.192Z,8.16
2018-01-23T07:52:19.205Z,8.13
2018-01-23T07:53:19.267Z,8.15
2018-01-23T07:54:19.236Z,8.19
2018-01-23T07:55:19.252Z,8.37
2018-01-23T07:56:19.266Z,8.30
2018-01-23T07:57:19.280Z,8.38
2018-01-23T07:58:19.296Z,8.36
2018-01-23T07:59:19.310Z,8.18
2018-01-23T08:00:19.327Z,8.23
2018-01-23T08:01:19.340Z,8.36
2018-01-23T08:02:19.357Z,8.41
2018-01-23T08:03:19.369Z,8.37
2018-01-23T08:04:19.386Z,8.46
2018-01-23T08:05:19.399Z,8.44
2018-01-23T08:06:19.414Z,8.45
2018-01-23T08:07:19.440Z,8.51
2018-01-23T08:08:19.444Z,8.63
2018-01-23T08:09:19.461Z,8.55
2018-01-23T08:10:19.475Z,8.61
2018-01-23T08:11:19.491Z,8.51
2018-01-23T08:12:19.504Z,8.42
2018-01-23T08:13:19.519Z,8.33
2018-01-23T08:14:19.534Z,8.38
2018-01-23T08:15:19.550Z,8.52
2018-01-23T08:16:19.570Z,8.38
2018-01-23T08:17:19.578Z,8.44
2018-01-23T08:18:19.594Z,8.48
2018-01-23T08:19:19.608Z,8.52
2018-01-23T08:20:19.624Z,8.48
2018-01-23T08:21:19.637Z,8.56
2018-01-23T08:22:19.659Z,8.58
2018-01-23T08:23:19.667Z,8.51
2018-01-23T08:24:19.685Z,8.55
2018-01-23T08:25:19.699Z,8.63
2018-01-23T08:26:19.715Z,8.53
2018-01-23T08:27:19.738Z,8.60
2018-01-23T08:28:19.743Z,8.74
2018-01-23T08:29:19.756Z,8.61
2018-01-23T08:30:19.773Z,8.69
2018-01-23T08:31:19.788Z,8.63
2018-01-23T08:32:19.807Z,8.49
2018-01-23T08:33:19.819Z,8.58
2018-01-23T08:34:19.831Z,8.78
2018-01-23T08:35:19.849Z,8.69
2018-01-23T08:36:19.862Z,8.78
2018-01-23T08:37:19.875Z,8.74
2018-01-23T08:38:19.894Z,8.74
2018-01-23T08:39:19.908Z,8.79
2018-01-23T08:40:19.922Z,8.81
2018-01-23T08:41:19.938Z,8.63
2018-01-23T08:42:19.953Z,8.63
2018-01-23T08:43:19.970Z,8.78
2018-01-23T08:44:19.981Z,8.78
2018-01-23T08:45:19.999Z,8.78
2018-01-23T08:46:20.015Z,8.73
2018-01-23T08:47:20.026Z,8.81
2018-01-23T08:48:20.043Z,8.95
2018-01-23T08:49:20.059Z,8.92
2018-01-23T08:50:20.089Z,8.91
2018-01-23T08:51:20.092Z,8.99
2018-01-23T08:52:20.108Z,8.79
2018-01-23T08:53:20.120Z,8.84
2018-01-23T08:54:20.135Z,8.91
2018-01-23T08:55:20.150Z,9.02
2018-01-23T08:56:20.165Z,8.97
2018-01-23T08:57:20.179Z,8.95
2018-01-23T08:58:20.194Z,9.04
2018-01-23T08:59:20.212Z,9.00
2018-01-23T09:00:20.225Z,8.87
2018-01-23T09:01:20.240Z,8.91
2018-01-23T09:02:20.257Z,8.87
2018-01-23T09:03:20.275Z,8.84
2018-01-23T09:04:20.293Z,8.74
2018-01-23T09:05:20.299Z,8.71
2018-01-23T09:06:20.315Z,8.85
2018-01-23T09:07:20.332Z,8.97
2018-01-23T09:08:20.345Z,9.03
2018-01-23T09:09:20.360Z,9.14
2018-01-23T09:10:20.374Z,9.10
2018-01-23T09:11:20.392Z,9.04
2018-01-23T09:12:20.406Z,9.16
2018-01-23T09:13:20.422Z,9.23
2018-01-23T09:14:20.437Z,9.25
2018-01-23T09:15:20.453Z,9.28
2018-01-23T09:16:20.483Z,9.31
2018-01-23T09:17:20.482Z,9.34
2018-01-23T09:18:20.499Z,9.39
2018-01-23T09:19:20.513Z,9.48
2018-01-23T09:20:20.531Z,9.54
2018-01-23T09:21:20.543Z,9.62
2018-01-23T09:22:20.558Z,9.62
2018-01-23T09:23:20.581Z,9.68
2018-01-23T09:24:20.591Z,9.69
2018-01-23T09:25:20.604Z,9.72
2018-01-23T09:26:20.619Z,9.69
2018-01-23T09:27:20.638Z,9.83
2018-01-23T09:28:20.652Z,9.91
2018-01-23T09:29:20.670Z,9.94
2018-01-23T09:30:20.693Z,9.91
2018-01-23T09:31:20.700Z,9.99
2018-01-23T09:32:20.713Z,9.98
2018-01-23T09:33:20.735Z,10.01
2018-01-23T09:34:20.757Z,9.99
2018-01-23T09:35:20.764Z,9.99
2018-01-23T09:36:20.776Z,9.98
2018-01-23T09:37:20.792Z,9.98
2018-01-23T09:38:20.808Z,9.98
2018-01-23T09:39:20.829Z,9.98
2018-01-23T09:40:20.842Z,9.83
2018-01-23T09:41:20.862Z,9.98
2018-01-23T09:42:20.875Z,9.80
2018-01-23T09:43:20.888Z,9.73
2018-01-23T09:44:20.902Z,9.89
2018-01-23T09:45:20.916Z,9.64
2018-01-23T09:46:20.939Z,9.41
2018-01-23T09:47:20.952Z,9.66
2018-01-23T09:48:20.966Z,9.87
2018-01-23T09:49:20.980Z,10.07
2018-01-23T09:50:21.002Z,10.20
2018-01-23T09:51:21.012Z,10.22
2018-01-23T09:52:21.031Z,10.13
2018-01-23T09:53:21.045Z,9.99
2018-01-23T09:54:21.062Z,10.01
2018-01-23T09:55:21.079Z,10.10
2018-01-23T09:56:21.093Z,9.99
2018-01-23T09:57:21.110Z,10.02
2018-01-23T09:58:21.151Z,10.17
2018-01-23T09:59:21.151Z,10.30
2018-01-23T10:00:21.160Z,10.37
2018-01-23T10:01:21.173Z,10.35
2018-01-23T10:02:21.187Z,10.31
2018-01-23T10:03:21.207Z,10.19
2018-01-23T10:04:21.218Z,10.28
2018-01-23T10:05:21.234Z,9.84
2018-01-23T10:06:21.257Z,9.99
2018-01-23T10:07:21.271Z,9.98
2018-01-23T10:08:21.284Z,10.17
2018-01-23T10:09:21.302Z,10.01
2018-01-23T10:10:21.313Z,10.13
2018-01-23T10:11:21.332Z,10.12
2018-01-23T10:12:21.349Z,10.31
2018-01-23T10:13:21.364Z,10.23
2018-01-23T10:14:21.380Z,10.28
2018-01-23T10:15:21.402Z,10.04
2018-01-23T10:16:21.413Z,10.10
2018-01-23T10:17:21.432Z,10.19
2018-01-23T10:18:21.495Z,10.15
2018-01-23T10:19:21.462Z,10.15
2018-01-23T10:20:21.479Z,10.23
2018-01-23T10:21:21.492Z,10.10
2018-01-23T10:22:21.509Z,9.98
2018-01-23T10:23:21.526Z,9.89
2018-01-23T10:24:21.540Z,9.86
2018-01-23T10:25:21.555Z,10.16
2018-01-23T10:26:21.572Z,9.94
2018-01-23T10:27:21.590Z,9.89
2018-01-23T10:28:21.607Z,9.74
2018-01-23T10:29:21.621Z,9.98
2018-01-23T10:30:21.637Z,9.98
2018-01-23T10:31:21.654Z,9.87
2018-01-23T10:32:21.670Z,10.13
2018-01-23T10:33:21.685Z,10.12
2018-01-23T10:34:21.700Z,10.25
2018-01-23T10:35:21.724Z,10.25
2018-01-23T10:36:21.732Z,10.33
2018-01-23T10:37:21.753Z,10.12
2018-01-23T10:38:21.767Z,10.25
2018-01-23T10:39:21.784Z,10.15
2018-01-23T10:40:21.799Z,10.02
2018-01-23T10:41:21.815Z,10.10
2018-01-23T10:42:21.836Z,10.12
2018-01-23T10:43:21.847Z,10.25
2018-01-23T10:44:21.864Z,10.17
2018-01-23T10:45:21.881Z,10.10
2018-01-23T10:46:21.897Z,10.12
2018-01-23T10:47:21.916Z,10.17
2018-01-23T10:48:21.928Z,10.20
2018-01-23T10:49:21.942Z,9.98
2018-01-23T10:50:21.983Z,10.25
2018-01-23T10:51:21.984Z,10.05
2018-01-23T10:52:21.994Z,10.35
2018-01-23T10:53:22.011Z,10.46
2018-01-23T10:54:22.102Z,10.34
2018-01-23T10:55:22.042Z,10.38
2018-01-23T10:56:22.060Z,10.67
2018-01-23T10:57:22.074Z,10.57
2018-01-23T10:58:22.093Z,10.60
2018-01-23T10:59:22.105Z,10.67
2018-01-23T11:00:22.122Z,10.63
2018-01-23T11:01:22.136Z,10.67
2018-01-23T11:02:22.156Z,10.57
2018-01-23T11:03:22.180Z,10.69
2018-01-23T11:04:22.187Z,10.72
2018-01-23T11:05:22.208Z,10.89
2018-01-23T11:06:22.221Z,10.93
2018-01-23T11:07:22.237Z,10.79
2018-01-23T11:08:22.255Z,10.53
2018-01-23T11:09:22.267Z,10.49
2018-01-23T11:10:22.323Z,10.51
2018-01-23T11:11:22.310Z,10.57
2018-01-23T11:12:22.327Z,10.68
2018-01-23T11:13:22.338Z,10.68
2018-01-23T11:14:22.433Z,10.59
2018-01-23T11:15:22.374Z,10.30
2018-01-23T11:16:22.389Z,9.99
2018-01-23T11:17:22.401Z,9.98
2018-01-23T11:18:22.420Z,10.01
2018-01-23T11:19:22.435Z,10.42
2018-01-23T11:20:22.451Z,10.51
2018-01-23T11:21:22.543Z,10.60
2018-01-23T11:22:22.484Z,10.46
2018-01-23T11:23:22.501Z,10.44
2018-01-23T11:24:22.516Z,10.17
2018-01-23T11:25:22.719Z,10.34
2018-01-23T11:26:22.548Z,10.22
2018-01-23T11:27:22.567Z,10.30
2018-01-23T11:28:22.585Z,10.12
2018-01-23T11:29:22.601Z,10.34
2018-01-23T11:30:22.617Z,10.34
2018-01-23T11:31:22.633Z,10.19
2018-01-23T11:32:22.653Z,10.25
2018-01-23T11:33:22.662Z,10.44
2018-01-23T11:34:22.678Z,10.56
2018-01-23T11:35:22.696Z,10.33
2018-01-23T11:36:22.712Z,10.46
2018-01-23T11:37:22.729Z,10.17
2018-01-23T11:38:22.747Z,10.31
2018-01-23T11:39:22.762Z,10.46
2018-01-23T11:40:22.775Z,10.82
2018-01-23T11:41:22.793Z,10.53
2018-01-23T11:42:22.809Z,10.37
2018-01-23T11:43:22.827Z,10.48
2018-01-23T11:44:22.839Z,10.46
2018-01-23T11:45:22.856Z,10.54
2018-01-23T11:46:22.877Z,10.59
2018-01-23T11:47:22.893Z,10.41
2018-01-23T11:48:22.907Z,10.33
2018-01-23T11:49:22.924Z,10.42
2018-01-23T11:50:22.939Z,10.72
2018-01-23T11:51:22.957Z,10.49
2018-01-23T11:52:22.972Z,10.42
2018-01-23T11:53:22.989Z,10.33
2018-01-23T11:54:23.010Z,10.37
2018-01-23T11:55:23.038Z,10.34
2018-01-23T11:56:23.036Z,10.28
2018-01-23T11:57:23.056Z,10.37
2018-01-23T11:58:23.078Z,10.37
2018-01-23T11:59:23.099Z,10.33
2018-01-23T12:00:23.105Z,10.31
2018-01-23T12:01:23.116Z,10.40
2018-01-23T12:02:23.135Z,10.53
2018-01-23T12:03:23.151Z,10.68
2018-01-23T12:04:23.165Z,10.76
2018-01-23T12:05:23.183Z,10.56
2018-01-23T12:06:23.207Z,10.78
2018-01-23T12:07:23.217Z,10.71
2018-01-23T12:08:23.231Z,10.92
2018-01-23T12:09:23.250Z,10.87
2018-01-23T12:10:23.264Z,10.97
2018-01-23T12:11:23.283Z,11.02
2018-01-23T12:12:23.296Z,11.15
2018-01-23T12:13:23.314Z,11.10
2018-01-23T12:14:23.331Z,10.94
2018-01-23T12:15:23.350Z,11.08
2018-01-23T12:16:23.364Z,11.14
2018-01-23T12:17:23.379Z,11.23
2018-01-23T12:18:23.400Z,11.29
2018-01-23T12:19:23.413Z,11.22
2018-01-23T12:20:23.431Z,11.30
2018-01-23T12:21:23.446Z,11.25
2018-01-23T12:22:23.461Z,10.89
2018-01-23T12:23:23.478Z,10.76
2018-01-23T12:24:23.494Z,10.68
2018-01-23T12:25:23.514Z,10.87
2018-01-23T12:26:23.528Z,11.12
2018-01-23T12:27:23.543Z,11.04
2018-01-23T12:28:23.561Z,10.76
2018-01-23T12:29:23.577Z,10.64
2018-01-23T12:30:23.597Z,10.74
2018-01-23T12:31:23.612Z,10.94
2018-01-23T12:32:23.635Z,11.10
2018-01-23T12:33:23.644Z,11.04
2018-01-23T12:34:23.666Z,11.14
2018-01-23T12:35:23.682Z,10.90
2018-01-23T12:36:23.696Z,10.86
2018-01-23T12:37:23.707Z,11.18
2018-01-23T12:38:23.727Z,11.12
2018-01-23T12:39:23.798Z,10.93
2018-01-23T12:40:23.758Z,10.76
2018-01-23T12:41:23.777Z,10.87
2018-01-23T12:42:23.792Z,11.05
2018-01-23T12:43:23.812Z,11.04
2018-01-23T12:44:23.825Z,11.08
2018-01-23T12:45:23.844Z,10.89
2018-01-23T12:46:23.858Z,10.96
2018-01-23T12:47:23.882Z,10.72
2018-01-23T12:48:23.890Z,10.46
2018-01-23T12:49:23.913Z,10.26
2018-01-23T12:50:23.922Z,10.26
2018-01-23T12:51:23.947Z,10.56
2018-01-23T12:52:23.959Z,10.63
2018-01-23T12:53:23.971Z,10.64
2018-01-23T12:54:23.992Z,10.56
2018-01-23T12:55:24.010Z,10.46
2018-01-23T12:56:24.023Z,10.54
2018-01-23T12:57:24.040Z,10.79
2018-01-23T12:58:24.056Z,10.93
2018-01-23T12:59:24.070Z,10.76
2018-01-23T13:00:24.088Z,10.61
2018-01-23T13:01:24.103Z,10.74
2018-01-23T13:02:24.120Z,10.97
2018-01-23T13:03:24.140Z,10.53
2018-01-23T13:04:24.151Z,10.59
2018-01-23T13:05:24.171Z,10.51
2018-01-23T13:06:24.187Z,10.23
2018-01-23T13:07:24.220Z,10.16
2018-01-23T13:08:24.218Z,10.25
2018-01-23T13:09:24.238Z,10.26
2018-01-23T13:10:24.258Z,10.38
2018-01-23T13:11:24.268Z,10.41
2018-01-23T13:12:24.317Z,10.28